Time;durP1;ratioP1;P1;durP2;ratioP2;P2;SDS_P1;SDS_P2;PMS_P1;PMS_P2;Temp;Humidity;BMP_temperature;BMP_pressure;BME280_temperature;BME280_humidity;BME280_pressure;Samples;Min_cycle;Max_cycle;Signal;HPM_P1;HPM_P2
2022/06/09 00:01:36;;;;;;;;;;;13.90;99.90;;;;;;5062279;28;19917;-68
2022/06/09 00:04:11;;;;;;;;;;;13.90;99.90;;;;;;5062663;28;19921;-67
2022/06/09 00:06:39;;;;;;;;;;;13.60;99.90;;;;;;5032770;28;19988;-68
2022/06/09 00:09:05;;;;;;;;;;;13.50;99.90;;;;;;5042735;28;19917;-68
2022/06/09 00:11:33;;;;;;;;;;;13.70;99.90;;;;;;5061525;28;20000;-68
2022/06/09 00:13:58;;;;;;;;;;;13.50;99.90;;;;;;5035639;28;20287;-68
2022/06/09 00:16:24;;;;;;;;;;;13.40;99.90;;;;;;5029021;28;19925;-68
2022/06/09 00:18:50;;;;;;;;;;;13.50;99.90;;;;;;5035350;28;19916;-67
2022/06/09 00:21:15;;;;;;;;;;;13.40;99.90;;;;;;5032912;28;20011;-69
2022/06/09 00:23:41;;;;;;;;;;;13.30;99.90;;;;;;5016395;28;20058;-68
2022/06/09 00:26:06;;;;;;;;;;;13.40;99.90;;;;;;5064241;28;19921;-68
2022/06/09 00:28:32;;;;;;;;;;;13.40;99.90;;;;;;5032386;28;20379;-69
2022/06/09 00:30:57;;;;;;;;;;;13.40;99.90;;;;;;5042399;28;19932;-68
2022/06/09 00:33:23;;;;;;;;;;;13.20;99.90;;;;;;5037552;28;20196;-69
2022/06/09 00:35:49;;;;;;;;;;;13.40;99.90;;;;;;5063652;28;20351;-69
2022/06/09 00:38:15;;;;;;;;;;;13.20;99.90;;;;;;5032702;28;20011;-69
2022/06/09 00:40:40;;;;;;;;;;;13.30;99.90;;;;;;5033126;28;20066;-69
2022/06/09 00:43:06;;;;;;;;;;;13.20;99.90;;;;;;5031379;28;19916;-68
2022/06/09 00:45:39;;;;;;;;;;;13.20;99.90;;;;;;5063109;28;20006;-68
2022/06/09 00:48:17;;;;;;;;;;;13.20;99.90;;;;;;5034793;28;19916;-69
2022/06/09 00:50:42;;;;;;;;;;;13.20;99.90;;;;;;5026773;28;20418;-68
2022/06/09 00:53:11;;;;;;;;;;;13.00;99.90;;;;;;5062278;28;20049;-71
2022/06/09 00:55:38;;;;;;;;;;;13.00;99.90;;;;;;5039283;28;20007;-69
2022/06/09 00:58:12;;;;;;;;;;;12.90;99.90;;;;;;5011404;28;19921;-68
2022/06/09 01:00:43;;;;;;;;;;;12.90;99.90;;;;;;5043895;28;19920;-70
2022/06/09 01:03:08;;;;;;;;;;;12.90;99.90;;;;;;5036765;28;20018;-71
2022/06/09 01:05:37;;;;;;;;;;;13.10;99.90;;;;;;5036694;28;20003;-68
2022/06/09 01:08:03;;;;;;;;;;;13.00;99.90;;;;;;5065922;28;19917;-69
2022/06/09 01:10:30;;;;;;;;;;;12.80;99.90;;;;;;5035682;28;20011;-69
2022/06/09 01:12:56;;;;;;;;;;;13.00;99.90;;;;;;5037723;28;20363;-69
2022/06/09 01:15:22;;;;;;;;;;;12.90;99.90;;;;;;5060574;28;19916;-67
2022/06/09 01:17:56;;;;;;;;;;;12.80;99.90;;;;;;5034519;28;19920;-70
2022/06/09 01:20:40;;;;;;;;;;;12.80;99.90;;;;;;5018167;28;19923;-69
2022/06/09 01:23:24;;;;;;;;;;;12.90;99.90;;;;;;5032706;28;19917;-67
2022/06/09 01:25:50;;;;;;;;;;;12.70;99.90;;;;;;5038015;28;19920;-68
2022/06/09 01:28:15;;;;;;;;;;;12.90;99.90;;;;;;5037254;28;19931;-68
2022/06/09 01:30:41;;;;;;;;;;;12.80;99.90;;;;;;5037408;28;19917;-69
2022/06/09 01:33:10;;;;;;;;;;;12.70;99.90;;;;;;5033841;28;19920;-69
2022/06/09 01:35:42;;;;;;;;;;;12.80;99.90;;;;;;5064212;28;19917;-70
2022/06/09 01:38:09;;;;;;;;;;;12.70;99.90;;;;;;5030692;28;20379;-70
2022/06/09 01:40:34;;;;;;;;;;;12.60;99.90;;;;;;5038325;28;20003;-69
2022/06/09 01:43:00;;;;;;;;;;;12.50;99.90;;;;;;5058367;28;20023;-70
2022/06/09 01:45:37;;;;;;;;;;;12.70;99.90;;;;;;5029490;28;20431;-70
2022/06/09 01:48:29;;;;;;;;;;;12.50;99.90;;;;;;5028865;28;19916;-69
2022/06/09 01:50:57;;;;;;;;;;;12.50;99.90;;;;;;5027141;28;19967;-70
2022/06/09 01:53:34;;;;;;;;;;;12.50;99.90;;;;;;5065285;28;19921;-70
2022/06/09 01:56:05;;;;;;;;;;;12.50;99.90;;;;;;5030341;28;20330;-69
2022/06/09 01:58:33;;;;;;;;;;;12.40;99.90;;;;;;5037563;28;19924;-71
2022/06/09 02:01:01;;;;;;;;;;;12.30;99.90;;;;;;5041261;28;20342;-70
2022/06/09 02:03:29;;;;;;;;;;;12.50;99.90;;;;;;5018246;28;19975;-70
2022/06/09 02:05:58;;;;;;;;;;;12.50;99.90;;;;;;5039371;28;19978;-71
2022/06/09 02:08:23;;;;;;;;;;;12.30;99.90;;;;;;5051006;28;19916;-71
2022/06/09 02:10:53;;;;;;;;;;;12.30;99.90;;;;;;5036936;28;20011;-71
2022/06/09 02:13:21;;;;;;;;;;;12.30;99.90;;;;;;5034206;28;19920;-72
2022/06/09 02:15:49;;;;;;;;;;;12.30;99.90;;;;;;5043412;28;19923;-70
2022/06/09 02:18:25;;;;;;;;;;;12.30;99.90;;;;;;5033425;28;19917;-71
2022/06/09 02:21:09;;;;;;;;;;;12.20;99.90;;;;;;5064662;28;19917;-71
2022/06/09 02:23:36;;;;;;;;;;;12.30;99.90;;;;;;5060072;28;19927;-71
2022/06/09 02:26:02;;;;;;;;;;;12.20;99.90;;;;;;5057675;28;20310;-72
2022/06/09 02:28:27;;;;;;;;;;;12.40;99.90;;;;;;5060843;28;19962;-70
2022/06/09 02:30:53;;;;;;;;;;;12.20;99.90;;;;;;5031717;28;19947;-70
2022/06/09 02:33:19;;;;;;;;;;;12.40;99.90;;;;;;5033177;28;19978;-71
2022/06/09 02:35:44;;;;;;;;;;;12.20;99.90;;;;;;5036501;28;19925;-72
2022/06/09 02:38:10;;;;;;;;;;;12.20;99.90;;;;;;5036218;28;20035;-72
2022/06/09 02:40:35;;;;;;;;;;;12.20;99.90;;;;;;5014361;28;19924;-72
2022/06/09 02:43:01;;;;;;;;;;;12.20;99.90;;;;;;5032188;28;19942;-72
2022/06/09 02:45:27;;;;;;;;;;;12.30;99.90;;;;;;5038071;28;19924;-72
2022/06/09 02:47:53;;;;;;;;;;;12.20;99.90;;;;;;5065912;28;19971;-72
2022/06/09 02:50:18;;;;;;;;;;;12.40;99.90;;;;;;5030540;28;19979;-73
2022/06/09 02:52:44;;;;;;;;;;;12.30;99.90;;;;;;5031799;28;19963;-73
2022/06/09 02:55:10;;;;;;;;;;;12.40;99.90;;;;;;5037415;28;20287;-73
2022/06/09 02:57:36;;;;;;;;;;;12.50;99.90;;;;;;5064528;28;19916;-73
2022/06/09 03:00:04;;;;;;;;;;;12.50;99.90;;;;;;5062470;28;20337;-73
2022/06/09 03:02:29;;;;;;;;;;;12.30;99.90;;;;;;5062817;28;19923;-73
2022/06/09 03:04:55;;;;;;;;;;;12.60;99.90;;;;;;5065034;28;19920;-73
2022/06/09 03:07:20;;;;;;;;;;;12.50;99.90;;;;;;5061050;28;19946;-72
2022/06/09 03:09:46;;;;;;;;;;;12.40;99.90;;;;;;5028289;28;19920;-72
2022/06/09 03:12:12;;;;;;;;;;;12.50;99.90;;;;;;5013013;28;20390;-72
2022/06/09 03:14:38;;;;;;;;;;;12.50;99.90;;;;;;5061009;28;19931;-72
2022/06/09 03:17:04;;;;;;;;;;;12.50;99.90;;;;;;5063358;28;19970;-73
2022/06/09 03:19:30;;;;;;;;;;;12.60;99.90;;;;;;5063004;28;19924;-73
2022/06/09 03:21:55;;;;;;;;;;;12.40;99.90;;;;;;5013399;28;19921;-72
2022/06/09 03:24:21;;;;;;;;;;;12.50;99.90;;;;;;5067123;28;19921;-72
2022/06/09 03:26:46;;;;;;;;;;;12.60;99.90;;;;;;5032475;28;20030;-72
2022/06/09 03:29:12;;;;;;;;;;;12.40;99.90;;;;;;5031197;28;19923;-72
2022/06/09 03:31:37;;;;;;;;;;;12.50;99.90;;;;;;5028451;28;20007;-71
2022/06/09 03:34:03;;;;;;;;;;;12.30;99.90;;;;;;5030426;28;19921;-71
2022/06/09 03:36:31;;;;;;;;;;;12.20;99.90;;;;;;5031758;28;20415;-71
2022/06/09 03:38:59;;;;;;;;;;;12.30;99.90;;;;;;5030586;28;20360;-70
2022/06/09 03:41:24;;;;;;;;;;;12.40;99.90;;;;;;5014218;28;20035;-71
2022/06/09 03:43:50;;;;;;;;;;;12.40;99.90;;;;;;5063729;28;20011;-71
2022/06/09 03:46:15;;;;;;;;;;;12.30;99.90;;;;;;5063313;28;19924;-72
2022/06/09 03:48:41;;;;;;;;;;;12.30;99.90;;;;;;5028915;28;19937;-71
2022/06/09 03:51:06;;;;;;;;;;;12.30;99.90;;;;;;5064811;28;19923;-72
2022/06/09 03:53:32;;;;;;;;;;;12.50;99.90;;;;;;5031960;28;19928;-71
2022/06/09 03:55:57;;;;;;;;;;;12.60;99.90;;;;;;5061397;28;20012;-71
2022/06/09 03:58:23;;;;;;;;;;;12.50;99.90;;;;;;5032002;28;20381;-71
2022/06/09 04:00:49;;;;;;;;;;;12.50;99.90;;;;;;5035066;28;19923;-71
2022/06/09 04:03:14;;;;;;;;;;;12.70;99.90;;;;;;5033634;28;19951;-70
2022/06/09 04:05:40;;;;;;;;;;;12.60;99.90;;;;;;5037080;28;19916;-70
2022/06/09 04:08:06;;;;;;;;;;;12.60;99.90;;;;;;5065806;28;20386;-70
2022/06/09 04:10:33;;;;;;;;;;;12.70;99.90;;;;;;5034907;28;20357;-71
2022/06/09 04:12:59;;;;;;;;;;;12.80;99.90;;;;;;5066845;28;20379;-71
2022/06/09 04:15:24;;;;;;;;;;;12.90;99.90;;;;;;5030569;28;20291;-72
2022/06/09 04:17:52;;;;;;;;;;;12.80;99.90;;;;;;5036802;28;19948;-71
2022/06/09 04:20:18;;;;;;;;;;;12.80;99.90;;;;;;5033132;28;19916;-72
2022/06/09 04:22:44;;;;;;;;;;;12.80;99.90;;;;;;5032979;28;19982;-71
2022/06/09 04:25:09;;;;;;;;;;;13.00;99.90;;;;;;5060854;28;19924;-72
2022/06/09 04:27:35;;;;;;;;;;;13.00;99.90;;;;;;5047560;28;19916;-74
2022/06/09 04:30:01;;;;;;;;;;;12.90;99.90;;;;;;5061769;28;19920;-73
2022/06/09 04:32:26;;;;;;;;;;;13.00;99.90;;;;;;5034427;28;19917;-72
2022/06/09 04:34:52;;;;;;;;;;;13.00;99.90;;;;;;5032033;28;19940;-72
2022/06/09 04:37:59;;;;;;;;;;;13.20;99.90;;;;;;5048435;28;19921;-70
2022/06/09 04:40:09;;;;;;;;;;;13.20;99.90;;;;;;5037838;28;20375;-71
2022/06/09 04:42:34;;;;;;;;;;;13.20;99.90;;;;;;5032921;28;19921;-72
2022/06/09 04:45:00;;;;;;;;;;;13.10;99.90;;;;;;5059965;28;19920;-72
2022/06/09 04:47:25;;;;;;;;;;;13.20;99.90;;;;;;5033902;28;19923;-71
2022/06/09 04:49:51;;;;;;;;;;;13.20;99.90;;;;;;5039807;28;20287;-70
2022/06/09 04:52:16;;;;;;;;;;;13.50;99.90;;;;;;5027721;28;19983;-71
2022/06/09 04:54:42;;;;;;;;;;;13.50;99.90;;;;;;5032458;28;19925;-69
2022/06/09 04:57:07;;;;;;;;;;;13.60;99.90;;;;;;5059180;28;19938;-71
2022/06/09 04:59:33;;;;;;;;;;;13.60;99.90;;;;;;5031314;28;19963;-70
2022/06/09 05:01:58;;;;;;;;;;;13.60;99.90;;;;;;5039978;28;19921;-70
2022/06/09 05:04:24;;;;;;;;;;;13.70;99.90;;;;;;5031245;28;19928;-74
2022/06/09 05:06:49;;;;;;;;;;;14.00;99.90;;;;;;5051025;28;19921;-73
2022/06/09 05:09:15;;;;;;;;;;;14.00;99.90;;;;;;5032817;28;19928;-71
2022/06/09 05:11:41;;;;;;;;;;;14.20;99.90;;;;;;5009426;28;19917;-70
2022/06/09 05:14:06;;;;;;;;;;;14.10;99.90;;;;;;5030065;28;19923;-72
2022/06/09 05:16:32;;;;;;;;;;;14.40;99.90;;;;;;5048518;28;20303;-72
2022/06/09 05:18:57;;;;;;;;;;;14.20;99.90;;;;;;5039664;28;20138;-69
2022/06/09 05:21:23;;;;;;;;;;;14.40;99.90;;;;;;5031559;28;19923;-70
2022/06/09 05:23:48;;;;;;;;;;;14.40;99.90;;;;;;5038527;28;20337;-72
2022/06/09 05:26:15;;;;;;;;;;;14.30;99.90;;;;;;5026769;28;19963;-72
2022/06/09 05:28:41;;;;;;;;;;;14.50;99.90;;;;;;5057029;28;19921;-68
2022/06/09 05:31:06;;;;;;;;;;;14.50;99.90;;;;;;5035183;28;19990;-71
2022/06/09 05:33:32;;;;;;;;;;;14.70;99.90;;;;;;5032948;28;19923;-70
2022/06/09 05:35:57;;;;;;;;;;;14.80;99.90;;;;;;5033419;28;19962;-72
2022/06/09 05:46:37;;;;;;;;;;;14.80;99.90;;;;;;5064007;28;19932;-70
2022/06/09 05:49:03;;;;;;;;;;;14.90;99.90;;;;;;5034971;28;19916;-67
2022/06/09 05:51:29;;;;;;;;;;;14.90;99.90;;;;;;5010940;28;20399;-70
2022/06/09 05:53:55;;;;;;;;;;;14.90;99.90;;;;;;5031437;28;19917;-70
2022/06/09 05:56:20;;;;;;;;;;;15.00;99.90;;;;;;5030097;28;19943;-72
2022/06/09 05:58:46;;;;;;;;;;;15.10;99.90;;;;;;5036179;28;20044;-71
2022/06/09 06:01:12;;;;;;;;;;;15.20;99.90;;;;;;5041671;28;20252;-72
2022/06/09 06:03:38;;;;;;;;;;;15.20;99.90;;;;;;5029223;28;19921;-71
2022/06/09 06:08:48;;;;;;;;;;;15.20;99.90;;;;;;5064156;28;20279;-71
2022/06/09 06:11:17;;;;;;;;;;;15.40;99.90;;;;;;5064820;28;19925;-70
2022/06/09 06:13:43;;;;;;;;;;;15.30;99.90;;;;;;5059263;28;20016;-72
2022/06/09 06:16:08;;;;;;;;;;;15.40;99.90;;;;;;5062401;28;20011;-73
2022/06/09 06:18:34;;;;;;;;;;;15.40;99.90;;;;;;5046622;28;19921;-71
2022/06/09 06:20:59;;;;;;;;;;;15.60;99.90;;;;;;5042381;28;20286;-72
2022/06/09 06:23:25;;;;;;;;;;;15.60;99.90;;;;;;5063507;28;20167;-70
2022/06/09 06:25:54;;;;;;;;;;;15.80;99.90;;;;;;5036241;28;19917;-71
2022/06/09 06:28:20;;;;;;;;;;;15.80;99.90;;;;;;5027101;28;19917;-72
2022/06/09 06:30:46;;;;;;;;;;;15.80;99.90;;;;;;5062326;28;19925;-69
2022/06/09 06:33:12;;;;;;;;;;;15.90;99.90;;;;;;5033705;28;19940;-73
2022/06/09 06:35:37;;;;;;;;;;;15.80;99.90;;;;;;5034402;28;19921;-74
2022/06/09 06:38:03;;;;;;;;;;;16.10;99.90;;;;;;5036306;28;19924;-72
2022/06/09 06:40:30;;;;;;;;;;;16.20;99.90;;;;;;5028376;28;19920;-71
2022/06/09 06:42:56;;;;;;;;;;;16.10;99.90;;;;;;5035978;28;19917;-71
2022/06/09 06:45:21;;;;;;;;;;;16.20;99.90;;;;;;5034354;28;20293;-71
2022/06/09 06:47:47;;;;;;;;;;;16.10;99.90;;;;;;5035149;28;19924;-71
2022/06/09 06:50:13;;;;;;;;;;;16.20;99.90;;;;;;5058805;28;19967;-71
2022/06/09 06:52:39;;;;;;;;;;;16.20;99.90;;;;;;5067323;28;19921;-70
2022/06/09 06:55:05;;;;;;;;;;;16.20;99.90;;;;;;5071011;28;19971;-70
2022/06/09 06:57:31;;;;;;;;;;;16.40;99.90;;;;;;5027118;28;19917;-69
2022/06/09 06:59:59;;;;;;;;;;;16.30;99.90;;;;;;5061129;28;19924;-69
2022/06/09 07:02:24;;;;;;;;;;;16.30;99.90;;;;;;5038164;28;19917;-67
2022/06/09 07:04:50;;;;;;;;;;;16.30;99.90;;;;;;5020526;28;19947;-70
2022/06/09 07:07:15;;;;;;;;;;;16.30;99.90;;;;;;5070848;28;19970;-71
2022/06/09 07:09:41;;;;;;;;;;;16.50;99.90;;;;;;5049969;28;19917;-69
2022/06/09 07:12:06;;;;;;;;;;;16.50;99.90;;;;;;5065231;28;19967;-72
2022/06/09 07:14:33;;;;;;;;;;;16.60;99.90;;;;;;5060115;28;20062;-71
2022/06/09 07:16:59;;;;;;;;;;;16.80;99.90;;;;;;5048086;28;20290;-72
2022/06/09 07:19:25;;;;;;;;;;;16.90;99.90;;;;;;5032948;28;20013;-72
2022/06/09 07:21:50;;;;;;;;;;;17.00;99.90;;;;;;5063791;28;20374;-71
2022/06/09 07:24:16;;;;;;;;;;;16.90;99.90;;;;;;5044290;28;19920;-72
2022/06/09 07:26:42;;;;;;;;;;;16.90;99.90;;;;;;5016435;28;19923;-71
2022/06/09 07:29:07;;;;;;;;;;;16.80;99.90;;;;;;5031631;28;19999;-70
2022/06/09 07:31:33;;;;;;;;;;;16.90;99.90;;;;;;5044819;28;19921;-68
2022/06/09 07:33:58;;;;;;;;;;;17.00;99.90;;;;;;5028300;28;19921;-70
2022/06/09 07:36:25;;;;;;;;;;;17.10;99.90;;;;;;5028499;28;20007;-71
2022/06/09 07:38:51;;;;;;;;;;;17.20;99.90;;;;;;5035773;28;19916;-71
2022/06/09 07:41:19;;;;;;;;;;;17.30;99.90;;;;;;5051398;28;20027;-68
2022/06/09 07:43:47;;;;;;;;;;;17.30;99.90;;;;;;5033245;28;19975;-70
2022/06/09 07:46:13;;;;;;;;;;;17.40;99.90;;;;;;5052059;28;19925;-72
2022/06/09 07:48:42;;;;;;;;;;;17.40;99.90;;;;;;5067655;28;20275;-69
2022/06/09 07:51:08;;;;;;;;;;;17.40;99.90;;;;;;5029695;28;20019;-68
2022/06/09 07:53:34;;;;;;;;;;;17.30;99.90;;;;;;5064777;28;20030;-72
2022/06/09 07:56:00;;;;;;;;;;;17.40;99.90;;;;;;5038069;28;19916;-72
2022/06/09 07:58:26;;;;;;;;;;;17.40;99.90;;;;;;5040440;28;19948;-72
2022/06/09 08:00:54;;;;;;;;;;;17.40;99.90;;;;;;5015145;28;19924;-70
2022/06/09 08:03:24;;;;;;;;;;;17.60;99.90;;;;;;5051063;28;20407;-70
2022/06/09 08:05:58;;;;;;;;;;;17.50;99.90;;;;;;5033444;28;20019;-68
2022/06/09 08:08:24;;;;;;;;;;;17.50;99.90;;;;;;5060481;28;19917;-72
2022/06/09 08:10:50;;;;;;;;;;;17.40;99.90;;;;;;5065177;28;19924;-70
2022/06/09 08:13:16;;;;;;;;;;;17.60;99.90;;;;;;5035741;28;19987;-72
2022/06/09 08:15:43;;;;;;;;;;;17.60;99.90;;;;;;5034951;28;19924;-70
2022/06/09 08:18:08;;;;;;;;;;;17.70;99.90;;;;;;5028020;28;20414;-71
2022/06/09 08:20:36;;;;;;;;;;;17.90;99.90;;;;;;5064149;28;20114;-71
2022/06/09 08:23:01;;;;;;;;;;;17.90;99.90;;;;;;5018476;28;19921;-73
2022/06/09 08:25:27;;;;;;;;;;;17.90;99.90;;;;;;5067669;28;19921;-72
2022/06/09 08:27:52;;;;;;;;;;;18.00;99.90;;;;;;5065243;28;20015;-72
2022/06/09 08:30:18;;;;;;;;;;;18.00;99.90;;;;;;5034490;28;20476;-70
2022/06/09 08:32:43;;;;;;;;;;;18.00;99.90;;;;;;5033285;28;19921;-69
2022/06/09 08:35:13;;;;;;;;;;;17.90;99.90;;;;;;5030957;28;19936;-71
2022/06/09 08:37:38;;;;;;;;;;;17.90;99.90;;;;;;5031587;28;19920;-70
2022/06/09 08:40:05;;;;;;;;;;;18.00;99.90;;;;;;5068240;28;19917;-75
2022/06/09 08:42:42;;;;;;;;;;;18.20;99.90;;;;;;5067386;28;19917;-73
2022/06/09 08:45:10;;;;;;;;;;;18.10;99.90;;;;;;5037971;28;20421;-73
2022/06/09 08:47:46;;;;;;;;;;;18.20;99.90;;;;;;5035546;28;19917;-72
2022/06/09 08:50:23;;;;;;;;;;;18.10;99.90;;;;;;5067137;28;19917;-72
2022/06/09 08:52:58;;;;;;;;;;;18.10;99.90;;;;;;5033355;28;20375;-70
2022/06/09 08:55:30;;;;;;;;;;;18.20;99.90;;;;;;5031321;28;20007;-72
2022/06/09 08:57:59;;;;;;;;;;;18.40;99.90;;;;;;5054493;28;20417;-73
2022/06/09 09:00:27;;;;;;;;;;;18.40;99.90;;;;;;5020932;28;20315;-73
2022/06/09 09:02:59;;;;;;;;;;;18.50;99.90;;;;;;5033824;28;20394;-74
2022/06/09 09:05:32;;;;;;;;;;;18.50;99.90;;;;;;5029488;28;19920;-72
2022/06/09 09:08:00;;;;;;;;;;;18.50;99.90;;;;;;5030185;28;19937;-72
2022/06/09 09:10:45;;;;;;;;;;;18.50;99.90;;;;;;5060430;28;20012;-71
2022/06/09 09:13:29;;;;;;;;;;;18.40;99.90;;;;;;5066425;28;20026;-73
2022/06/09 09:16:02;;;;;;;;;;;18.50;99.90;;;;;;5027234;28;19924;-70
2022/06/09 09:18:35;;;;;;;;;;;18.40;99.90;;;;;;5013343;28;19960;-76
2022/06/09 09:21:10;;;;;;;;;;;18.30;99.90;;;;;;5049581;28;19964;-75
2022/06/09 09:23:49;;;;;;;;;;;18.30;99.90;;;;;;5057290;28;20410;-71
2022/06/09 09:26:20;;;;;;;;;;;18.50;99.90;;;;;;5062953;28;19975;-73
2022/06/09 09:28:48;;;;;;;;;;;18.60;99.90;;;;;;5037068;28;19924;-70
2022/06/09 09:31:20;;;;;;;;;;;18.60;99.90;;;;;;5056663;28;20055;-71
2022/06/09 09:33:45;;;;;;;;;;;18.60;99.90;;;;;;5062949;28;19994;-72
2022/06/09 09:36:19;;;;;;;;;;;18.60;99.90;;;;;;5033825;28;19917;-74
2022/06/09 09:38:51;;;;;;;;;;;18.50;99.90;;;;;;5027700;28;19943;-73
2022/06/09 09:41:33;;;;;;;;;;;18.60;99.90;;;;;;5027653;28;19917;-74
2022/06/09 09:44:00;;;;;;;;;;;18.70;99.90;;;;;;5065362;28;20278;-72
2022/06/09 09:46:28;;;;;;;;;;;18.60;99.90;;;;;;5066001;28;19917;-71
2022/06/09 09:48:56;;;;;;;;;;;18.60;99.90;;;;;;5033188;28;19921;-70
2022/06/09 09:51:31;;;;;;;;;;;18.60;99.90;;;;;;5064646;28;19916;-71
2022/06/09 09:53:57;;;;;;;;;;;18.60;99.90;;;;;;5032282;28;19917;-70
2022/06/09 09:56:36;;;;;;;;;;;18.60;99.90;;;;;;5045205;28;20003;-74
2022/06/09 09:59:03;;;;;;;;;;;18.50;99.90;;;;;;5057568;28;20306;-71
2022/06/09 10:01:34;;;;;;;;;;;18.40;99.90;;;;;;5012354;28;20007;-72
2022/06/09 10:09:38;;;;;;;;;;;18.70;99.90;;;;;;5048281;28;19966;-78
2022/06/09 10:12:10;;;;;;;;;;;18.80;99.90;;;;;;5030516;28;19924;-75
2022/06/09 10:14:48;;;;;;;;;;;18.80;99.90;;;;;;5031363;28;19924;-74
2022/06/09 10:17:21;;;;;;;;;;;18.80;99.90;;;;;;5035874;28;20007;-74
2022/06/09 10:19:54;;;;;;;;;;;18.80;99.90;;;;;;5029482;28;19943;-72
2022/06/09 10:22:21;;;;;;;;;;;18.80;99.90;;;;;;5029513;28;20279;-72
2022/06/09 10:24:49;;;;;;;;;;;18.90;99.90;;;;;;5059230;28;19975;-73
2022/06/09 10:27:16;;;;;;;;;;;19.10;99.90;;;;;;5033670;28;19929;-71
2022/06/09 10:29:49;;;;;;;;;;;19.10;99.90;;;;;;5060769;28;19964;-73
2022/06/09 10:32:27;;;;;;;;;;;19.10;99.90;;;;;;5058447;28;19916;-72
2022/06/09 10:34:56;;;;;;;;;;;19.10;99.90;;;;;;5037069;28;20283;-71
2022/06/09 10:37:28;;;;;;;;;;;19.10;99.90;;;;;;5038462;28;21601;-73
2022/06/09 10:40:12;;;;;;;;;;;19.00;99.90;;;;;;5034917;28;19923;-70
2022/06/09 10:43:02;;;;;;;;;;;19.00;99.90;;;;;;5046064;28;19924;-70
2022/06/09 10:46:05;;;;;;;;;;;19.10;99.90;;;;;;5031336;28;20382;-70
2022/06/09 10:57:17;;;;;;;;;;;18.60;99.90;;;;;;5033885;28;19923;-76
2022/06/09 10:59:54;;;;;;;;;;;18.80;99.90;;;;;;5030978;28;19917;-74
2022/06/09 11:02:22;;;;;;;;;;;18.90;99.90;;;;;;5029027;28;19928;-72
2022/06/09 11:04:48;;;;;;;;;;;18.90;99.90;;;;;;5010364;28;20974;-74
2022/06/09 11:07:23;;;;;;;;;;;18.80;99.90;;;;;;5055046;28;19917;-72
2022/06/09 11:10:15;;;;;;;;;;;18.60;99.90;;;;;;5055424;28;19943;-72
2022/06/09 11:12:55;;;;;;;;;;;18.60;99.90;;;;;;5025530;28;20301;-75
2022/06/09 11:15:25;;;;;;;;;;;18.40;99.90;;;;;;5013253;28;20353;-73
2022/06/09 11:18:02;;;;;;;;;;;18.60;99.90;;;;;;5047246;28;19927;-77
2022/06/09 11:20:34;;;;;;;;;;;18.40;99.90;;;;;;5028833;28;20003;-74
2022/06/09 11:23:07;;;;;;;;;;;18.40;99.90;;;;;;5061267;28;19924;-68
2022/06/09 11:26:02;;;;;;;;;;;18.70;99.90;;;;;;5026980;28;19924;-73
2022/06/09 11:28:46;;;;;;;;;;;18.80;99.90;;;;;;4990141;28;20004;-72
2022/06/09 11:31:23;;;;;;;;;;;19.00;99.90;;;;;;5032873;28;20379;-77
2022/06/09 11:34:06;;;;;;;;;;;19.20;99.90;;;;;;5030730;28;20276;-76
2022/06/09 11:36:39;;;;;;;;;;;19.20;99.90;;;;;;5046338;28;19980;-75
2022/06/09 11:39:23;;;;;;;;;;;19.20;99.90;;;;;;5063554;28;20331;-76
2022/06/09 11:41:52;;;;;;;;;;;19.40;99.90;;;;;;5049150;28;19970;-72
2022/06/09 11:44:23;;;;;;;;;;;19.40;99.90;;;;;;5014643;28;19933;-74
2022/06/09 11:46:49;;;;;;;;;;;19.40;99.90;;;;;;5031054;28;19932;-74
2022/06/09 11:49:22;;;;;;;;;;;19.50;99.90;;;;;;5025831;28;20100;-76
2022/06/09 11:51:48;;;;;;;;;;;19.40;99.90;;;;;;5049874;28;20397;-72
2022/06/09 11:54:33;;;;;;;;;;;19.30;99.90;;;;;;5027554;28;19916;-75
2022/06/09 11:57:34;;;;;;;;;;;19.20;99.90;;;;;;5029054;28;19962;-74
2022/06/09 12:00:03;;;;;;;;;;;19.40;99.90;;;;;;4989619;28;20370;-73
2022/06/09 12:02:31;;;;;;;;;;;19.40;99.90;;;;;;5027333;28;19925;-71
2022/06/09 12:04:57;;;;;;;;;;;19.20;99.90;;;;;;5067316;28;19933;-72
2022/06/09 12:07:37;;;;;;;;;;;19.00;99.90;;;;;;5065629;28;20424;-70
2022/06/09 12:10:18;;;;;;;;;;;18.90;99.90;;;;;;5061734;28;20375;-71
2022/06/09 12:12:45;;;;;;;;;;;19.10;99.90;;;;;;5058610;28;19924;-74
2022/06/09 12:15:24;;;;;;;;;;;19.10;99.90;;;;;;5014113;28;19970;-73
2022/06/09 12:17:54;;;;;;;;;;;18.80;99.90;;;;;;5061476;28;20427;-70
2022/06/09 12:20:34;;;;;;;;;;;18.40;99.90;;;;;;5061063;28;20330;-72
2022/06/09 12:23:02;;;;;;;;;;;18.20;99.90;;;;;;5011028;28;19964;-73
2022/06/09 12:25:33;;;;;;;;;;;18.30;99.90;;;;;;5029424;28;19974;-77
2022/06/09 12:27:59;;;;;;;;;;;18.50;99.90;;;;;;5027880;28;19924;-73
2022/06/09 12:30:26;;;;;;;;;;;18.70;99.90;;;;;;5063624;28;19923;-72
2022/06/09 12:32:55;;;;;;;;;;;18.90;99.90;;;;;;5063189;28;19944;-68
2022/06/09 12:35:39;;;;;;;;;;;19.10;99.90;;;;;;5028835;28;19921;-70
2022/06/09 12:38:06;;;;;;;;;;;19.20;99.90;;;;;;5067153;28;19924;-73
2022/06/09 12:40:41;;;;;;;;;;;19.10;99.90;;;;;;5038193;28;20150;-74
2022/06/09 12:43:18;;;;;;;;;;;19.00;99.90;;;;;;5030328;28;19916;-73
2022/06/09 12:45:57;;;;;;;;;;;19.00;99.90;;;;;;5063967;28;19920;-76
2022/06/09 12:48:27;;;;;;;;;;;18.90;99.90;;;;;;5054307;28;20375;-72
2022/06/09 12:50:52;;;;;;;;;;;18.80;99.90;;;;;;5027904;28;19925;-70
2022/06/09 12:53:18;;;;;;;;;;;18.80;99.90;;;;;;5056839;28;19921;-72
2022/06/09 12:55:49;;;;;;;;;;;18.90;99.90;;;;;;5028532;28;20382;-71
2022/06/09 12:58:21;;;;;;;;;;;18.90;99.90;;;;;;5061153;28;20671;-75
2022/06/09 13:00:57;;;;;;;;;;;18.90;99.90;;;;;;5060652;28;19956;-71
2022/06/09 13:03:25;;;;;;;;;;;19.10;99.90;;;;;;5060042;28;19959;-73
2022/06/09 13:05:51;;;;;;;;;;;19.20;99.90;;;;;;5029201;28;19935;-76
2022/06/09 13:08:19;;;;;;;;;;;19.30;99.90;;;;;;5023660;28;19917;-70
2022/06/09 13:10:46;;;;;;;;;;;19.30;99.90;;;;;;5025148;28;19917;-72
2022/06/09 13:13:18;;;;;;;;;;;19.30;99.90;;;;;;5040694;28;19955;-73
2022/06/09 13:16:04;;;;;;;;;;;19.40;99.90;;;;;;5022624;28;19971;-74
2022/06/09 13:18:33;;;;;;;;;;;19.50;99.90;;;;;;5006499;28;20031;-73
2022/06/09 13:21:00;;;;;;;;;;;19.60;99.90;;;;;;5026183;28;19917;-75
2022/06/09 13:23:29;;;;;;;;;;;19.60;99.90;;;;;;5028677;28;20379;-73
2022/06/09 13:25:55;;;;;;;;;;;19.60;99.90;;;;;;5058997;28;20015;-71
2022/06/09 13:28:27;;;;;;;;;;;19.60;99.90;;;;;;5061316;28;19921;-78
2022/06/09 13:30:53;;;;;;;;;;;19.60;99.90;;;;;;5057447;28;19928;-74
2022/06/09 13:33:33;;;;;;;;;;;19.60;99.90;;;;;;5061172;28;20442;-70
2022/06/09 13:36:19;;;;;;;;;;;19.60;99.90;;;;;;5010909;28;20418;-75
2022/06/09 13:38:46;;;;;;;;;;;19.60;99.90;;;;;;5029926;28;19923;-72
2022/06/09 13:41:16;;;;;;;;;;;19.70;99.90;;;;;;5027284;28;19917;-74
2022/06/09 13:43:46;;;;;;;;;;;19.60;99.90;;;;;;5058041;28;19924;-69
2022/06/09 13:46:14;;;;;;;;;;;19.50;99.90;;;;;;5056665;28;19921;-71
2022/06/09 13:48:43;;;;;;;;;;;19.50;99.90;;;;;;5060960;28;19971;-73
2022/06/09 13:51:10;;;;;;;;;;;19.50;99.90;;;;;;5026462;28;19925;-71
2022/06/09 13:53:40;;;;;;;;;;;19.60;99.90;;;;;;5026755;28;19923;-76
2022/06/09 13:56:10;;;;;;;;;;;19.60;99.90;;;;;;5025431;28;19938;-76
2022/06/09 13:58:35;;;;;;;;;;;19.40;99.90;;;;;;5057122;28;19917;-69
2022/06/09 14:01:03;;;;;;;;;;;19.40;99.90;;;;;;5025137;28;19970;-75
2022/06/09 14:03:38;;;;;;;;;;;19.40;99.90;;;;;;5014358;28;20032;-73
2022/06/09 14:06:05;;;;;;;;;;;19.40;99.90;;;;;;5050145;28;20343;-74
2022/06/09 14:08:33;;;;;;;;;;;19.50;99.90;;;;;;5055147;28;20132;-75
2022/06/09 14:10:59;;;;;;;;;;;19.40;99.90;;;;;;5023657;28;19979;-75
2022/06/09 14:13:24;;;;;;;;;;;19.40;99.90;;;;;;5022303;28;20386;-76
2022/06/09 14:15:51;;;;;;;;;;;19.30;99.90;;;;;;5058324;28;20383;-72
2022/06/09 14:18:18;;;;;;;;;;;19.50;99.90;;;;;;5058694;28;19916;-69
2022/06/09 14:20:43;;;;;;;;;;;19.50;99.90;;;;;;5054683;28;19916;-72
2022/06/09 14:23:15;;;;;;;;;;;19.60;99.90;;;;;;5025363;28;19943;-76
2022/06/09 14:25:41;;;;;;;;;;;19.70;99.90;;;;;;5022090;28;19971;-75
2022/06/09 14:28:08;;;;;;;;;;;19.80;99.90;;;;;;5056741;28;20418;-73
2022/06/09 14:30:33;;;;;;;;;;;19.80;99.90;;;;;;5031522;28;19927;-74
2022/06/09 14:32:59;;;;;;;;;;;19.70;99.90;;;;;;5033927;28;19920;-71
2022/06/09 14:35:24;;;;;;;;;;;19.70;99.90;;;;;;5037523;28;20011;-70
2022/06/09 14:37:50;;;;;;;;;;;19.70;99.90;;;;;;5032857;28;19917;-74
2022/06/09 14:40:21;;;;;;;;;;;19.70;99.90;;;;;;5050207;28;19917;-76
2022/06/09 14:42:47;;;;;;;;;;;19.70;99.90;;;;;;5059041;28;19921;-71
2022/06/09 14:45:12;;;;;;;;;;;19.60;99.90;;;;;;5027652;28;19920;-72
2022/06/09 14:47:38;;;;;;;;;;;19.50;99.90;;;;;;5054517;28;20327;-71
2022/06/09 14:50:03;;;;;;;;;;;19.50;99.90;;;;;;5032219;28;19998;-73
2022/06/09 14:52:29;;;;;;;;;;;19.50;99.90;;;;;;5032969;28;19968;-71